Time;durP1;ratioP1;P1;durP2;ratioP2;P2;SDS_P1;SDS_P2;PMS_P1;PMS_P2;Temp;Humidity;BMP_temperature;BMP_pressure;BME280_temperature;BME280_humidity;BME280_pressure;Samples;Min_cycle;Max_cycle;Signal;HPM_P1;HPM_P2
2021/10/06 00:00:12;;;;;;;5.70;1.58;;;;;;;;;;5091551;28;20031;-44
2021/10/06 00:02:37;;;;;;;1.65;1.27;;;;;;;;;;5092116;28;20028;-44
2021/10/06 00:05:03;;;;;;;3.10;1.88;;;;;;;;;;5091863;28;20382;-44
2021/10/06 00:07:28;;;;;;;2.08;1.10;;;;;;;;;;5091692;28;20016;-45
2021/10/06 00:09:54;;;;;;;2.28;1.00;;;;;;;;;;5091431;28;20556;-43
2021/10/06 00:12:19;;;;;;;4.30;1.65;;;;;;;;;;5091205;28;20044;-44
2021/10/06 00:14:44;;;;;;;2.83;0.93;;;;;;;;;;5091493;28;20118;-44
2021/10/06 00:17:10;;;;;;;6.18;1.58;;;;;;;;;;5091533;28;20131;-44
2021/10/06 00:19:35;;;;;;;3.13;0.73;;;;;;;;;;5091456;28;20055;-44
2021/10/06 00:22:01;;;;;;;2.33;0.70;;;;;;;;;;5091606;28;20077;-43
2021/10/06 00:24:26;;;;;;;2.10;0.47;;;;;;;;;;5091304;28;20509;-44
2021/10/06 00:26:51;;;;;;;2.33;0.80;;;;;;;;;;5091405;28;20020;-44
2021/10/06 00:29:17;;;;;;;4.40;0.55;;;;;;;;;;5073103;28;20032;-44
2021/10/06 00:31:42;;;;;;;1.40;0.60;;;;;;;;;;5091589;28;20375;-44
2021/10/06 00:34:07;;;;;;;5.90;1.13;;;;;;;;;;5091079;28;20047;-44
2021/10/06 00:36:33;;;;;;;2.67;0.63;;;;;;;;;;5073141;28;20047;-44
2021/10/06 00:38:58;;;;;;;1.17;0.82;;;;;;;;;;5073262;28;20043;-44
2021/10/06 00:41:24;;;;;;;0.50;0.50;;;;;;;;;;5073028;28;20020;-44
2021/10/06 00:43:49;;;;;;;2.05;0.80;;;;;;;;;;5091474;28;20075;-44
2021/10/06 00:46:15;;;;;;;5.60;1.10;;;;;;;;;;5072779;28;20023;-44
2021/10/06 00:48:40;;;;;;;5.32;0.50;;;;;;;;;;5091182;28;20032;-44
2021/10/06 00:51:06;;;;;;;6.00;0.85;;;;;;;;;;5072948;28;20103;-44
2021/10/06 00:53:31;;;;;;;3.88;1.00;;;;;;;;;;5090957;28;20375;-44
2021/10/06 00:55:56;;;;;;;3.25;1.17;;;;;;;;;;5091080;28;20788;-44
2021/10/06 00:58:22;;;;;;;2.28;0.63;;;;;;;;;;5090862;28;20217;-44
2021/10/06 01:00:48;;;;;;;5.10;1.50;;;;;;;;;;5094585;28;20032;-44
2021/10/06 01:03:13;;;;;;;5.53;1.50;;;;;;;;;;5094746;28;20132;-44
2021/10/06 01:05:39;;;;;;;6.47;1.60;;;;;;;;;;5095004;28;20020;-44
2021/10/06 01:08:04;;;;;;;2.70;1.33;;;;;;;;;;5095056;28;20043;-44
2021/10/06 01:10:30;;;;;;;5.45;2.05;;;;;;;;;;5094953;28;20023;-44
2021/10/06 01:12:56;;;;;;;4.30;1.70;;;;;;;;;;5094390;28;20123;-44
2021/10/06 01:15:21;;;;;;;3.03;1.20;;;;;;;;;;5094613;28;20028;-44
2021/10/06 01:17:47;;;;;;;4.38;1.50;;;;;;;;;;5094800;28;20443;-44
2021/10/06 01:20:12;;;;;;;8.50;1.52;;;;;;;;;;5076281;28;20051;-44
2021/10/06 01:22:38;;;;;;;2.63;1.35;;;;;;;;;;5076494;28;20034;-44
2021/10/06 01:25:05;;;;;;;4.43;2.17;;;;;;;;;;5094382;28;20459;-44
2021/10/06 01:27:30;;;;;;;3.30;1.65;;;;;;;;;;5094194;28;20040;-44
2021/10/06 01:29:55;;;;;;;3.92;1.08;;;;;;;;;;5094396;28;20031;-44
2021/10/06 01:32:21;;;;;;;5.95;1.25;;;;;;;;;;5076009;28;20050;-44
2021/10/06 01:34:56;;;;;;;6.47;1.25;;;;;;;;;;5094193;28;20020;-44
2021/10/06 01:37:22;;;;;;;5.70;1.75;;;;;;;;;;5094374;28;20059;-44
2021/10/06 01:39:48;;;;;;;1.70;0.70;;;;;;;;;;5094247;28;20059;-44
2021/10/06 01:42:13;;;;;;;5.03;1.50;;;;;;;;;;5093951;28;20032;-44
2021/10/06 01:44:38;;;;;;;1.05;0.95;;;;;;;;;;5094125;28;20016;-44
2021/10/06 01:47:04;;;;;;;2.17;0.95;;;;;;;;;;5094278;28;20059;-44
2021/10/06 01:49:29;;;;;;;3.13;1.67;;;;;;;;;;5093770;28;20097;-44
2021/10/06 01:51:55;;;;;;;1.92;0.70;;;;;;;;;;5093811;28;20116;-44
2021/10/06 01:54:20;;;;;;;17.00;1.05;;;;;;;;;;5093770;28;20052;-44
2021/10/06 01:56:45;;;;;;;4.82;1.15;;;;;;;;;;5093791;28;20074;-43
2021/10/06 01:59:11;;;;;;;4.80;1.40;;;;;;;;;;5093772;28;20564;-44
2021/10/06 02:01:36;;;;;;;5.15;1.20;;;;;;;;;;5093731;28;20032;-44
2021/10/06 02:04:02;;;;;;;2.13;1.17;;;;;;;;;;5075545;28;20024;-43
2021/10/06 02:06:27;;;;;;;4.53;1.35;;;;;;;;;;5093677;28;20533;-44
2021/10/06 02:08:52;;;;;;;1.13;0.75;;;;;;;;;;5093813;28;20399;-44
2021/10/06 02:11:18;;;;;;;2.63;0.70;;;;;;;;;;5093688;28;20115;-44
2021/10/06 02:13:43;;;;;;;2.65;0.88;;;;;;;;;;5093235;28;20047;-44
2021/10/06 02:16:09;;;;;;;4.82;0.90;;;;;;;;;;5093309;28;20025;-44
2021/10/06 02:18:34;;;;;;;2.13;1.20;;;;;;;;;;5093486;28;20024;-44
2021/10/06 02:21:00;;;;;;;7.93;1.15;;;;;;;;;;5093764;28;20028;-43
2021/10/06 02:23:25;;;;;;;2.53;1.17;;;;;;;;;;5093268;28;20016;-44
2021/10/06 02:25:51;;;;;;;3.95;0.93;;;;;;;;;;5093513;28;20111;-44
2021/10/06 02:28:16;;;;;;;7.30;1.45;;;;;;;;;;5093415;28;20397;-44
2021/10/06 02:30:41;;;;;;;10.20;1.52;;;;;;;;;;5093167;28;20028;-44
2021/10/06 02:33:07;;;;;;;4.68;1.05;;;;;;;;;;5093120;28;20035;-44
2021/10/06 02:35:32;;;;;;;5.85;1.10;;;;;;;;;;5093117;28;20059;-44
2021/10/06 02:37:58;;;;;;;6.18;1.08;;;;;;;;;;5093126;28;20024;-44
2021/10/06 02:40:23;;;;;;;3.88;1.08;;;;;;;;;;5093101;28;20086;-44
2021/10/06 02:42:49;;;;;;;2.90;1.00;;;;;;;;;;5093090;28;20451;-43
2021/10/06 02:45:16;;;;;;;6.78;1.80;;;;;;;;;;5092942;28;20028;-44
2021/10/06 02:47:42;;;;;;;2.92;1.00;;;;;;;;;;5092895;28;20489;-44
2021/10/06 02:50:09;;;;;;;3.97;1.02;;;;;;;;;;5092879;28;20360;-44
2021/10/06 02:52:35;;;;;;;1.55;0.90;;;;;;;;;;5092693;28;20020;-45
2021/10/06 02:55:00;;;;;;;2.22;1.27;;;;;;;;;;5092974;28;20040;-43
2021/10/06 02:57:26;;;;;;;4.85;1.42;;;;;;;;;;5092558;28;20101;-44
2021/10/06 02:59:51;;;;;;;5.85;1.45;;;;;;;;;;5092837;28;20053;-44
2021/10/06 03:02:17;;;;;;;8.77;0.98;;;;;;;;;;5092525;28;20132;-44
2021/10/06 03:04:42;;;;;;;6.28;1.20;;;;;;;;;;5092533;28;20031;-44
2021/10/06 03:07:08;;;;;;;8.25;2.03;;;;;;;;;;5092384;28;20459;-44
2021/10/06 03:09:33;;;;;;;5.30;0.90;;;;;;;;;;5092485;28;20024;-44
2021/10/06 03:11:58;;;;;;;4.10;1.20;;;;;;;;;;5092054;28;20073;-43
2021/10/06 03:14:24;;;;;;;6.22;1.05;;;;;;;;;;5092494;28;20106;-44
2021/10/06 03:16:49;;;;;;;4.25;1.55;;;;;;;;;;5092266;28;20491;-44
2021/10/06 03:19:14;;;;;;;4.90;1.10;;;;;;;;;;5092152;28;20031;-44
2021/10/06 03:21:40;;;;;;;6.85;1.30;;;;;;;;;;5073449;28;20073;-44
2021/10/06 03:24:05;;;;;;;2.95;1.00;;;;;;;;;;5092191;28;20039;-44
2021/10/06 03:26:31;;;;;;;3.10;0.90;;;;;;;;;;5092097;28;20012;-44
2021/10/06 03:28:57;;;;;;;2.45;0.88;;;;;;;;;;5091984;28;20093;-44
2021/10/06 03:31:22;;;;;;;3.88;1.00;;;;;;;;;;5092068;28;20020;-44
2021/10/06 03:33:48;;;;;;;3.58;1.00;;;;;;;;;;5091941;28;20050;-44
2021/10/06 03:36:13;;;;;;;2.75;0.80;;;;;;;;;;5091771;28;20107;-44
2021/10/06 03:38:38;;;;;;;2.38;0.90;;;;;;;;;;5092077;28;20032;-44
2021/10/06 03:41:04;;;;;;;3.53;1.15;;;;;;;;;;5092082;28;20459;-44
2021/10/06 03:43:29;;;;;;;2.25;0.43;;;;;;;;;;5091820;28;20721;-43
2021/10/06 03:45:54;;;;;;;2.35;0.40;;;;;;;;;;5091858;28;20061;-44
2021/10/06 03:48:20;;;;;;;6.35;0.93;;;;;;;;;;5091632;28;20118;-44
2021/10/06 03:50:45;;;;;;;2.50;0.70;;;;;;;;;;5091746;28;20016;-44
2021/10/06 03:53:12;;;;;;;11.07;0.70;;;;;;;;;;5091573;28;20032;-43
2021/10/06 03:55:38;;;;;;;3.05;0.70;;;;;;;;;;5091625;28;20012;-44
2021/10/06 03:58:03;;;;;;;4.10;0.43;;;;;;;;;;5073968;28;20078;-44
2021/10/06 04:00:29;;;;;;;7.75;0.73;;;;;;;;;;5091603;28;20478;-44
2021/10/06 04:02:55;;;;;;;3.10;0.60;;;;;;;;;;5091590;28;20032;-44
2021/10/06 04:05:20;;;;;;;1.55;0.73;;;;;;;;;;5091737;28;20012;-44
2021/10/06 04:07:46;;;;;;;3.22;0.80;;;;;;;;;;5091534;28;20529;-44
2021/10/06 04:10:11;;;;;;;1.80;0.65;;;;;;;;;;5091469;28;20157;-44
2021/10/06 04:12:37;;;;;;;2.72;0.57;;;;;;;;;;5091370;28;20044;-44
2021/10/06 04:15:03;;;;;;;3.90;0.43;;;;;;;;;;5091514;28;20192;-43
2021/10/06 04:17:28;;;;;;;4.65;0.80;;;;;;;;;;5091320;28;20036;-44
2021/10/06 04:19:53;;;;;;;2.90;0.73;;;;;;;;;;5091413;28;20027;-44
2021/10/06 04:22:19;;;;;;;3.03;0.60;;;;;;;;;;5091646;28;20028;-44
2021/10/06 04:24:44;;;;;;;4.78;0.52;;;;;;;;;;5091360;28;20117;-43
2021/10/06 04:27:10;;;;;;;3.25;0.57;;;;;;;;;;5091480;28;20032;-44
2021/10/06 04:29:35;;;;;;;4.85;0.98;;;;;;;;;;5091398;28;20019;-44
2021/10/06 04:32:00;;;;;;;1.35;0.80;;;;;;;;;;5091470;28;20035;-43
2021/10/06 04:34:26;;;;;;;2.85;0.88;;;;;;;;;;5092772;28;20031;-44
2021/10/06 04:36:51;;;;;;;6.63;0.73;;;;;;;;;;5095403;28;20042;-44
2021/10/06 04:39:17;;;;;;;2.65;0.65;;;;;;;;;;5095219;28;20058;-44
2021/10/06 04:41:42;;;;;;;8.00;0.70;;;;;;;;;;5093978;28;20066;-44
2021/10/06 04:44:08;;;;;;;4.50;0.68;;;;;;;;;;5095326;28;20020;-45
2021/10/06 04:46:33;;;;;;;2.97;0.93;;;;;;;;;;5094970;28;20040;-44
2021/10/06 04:49:01;;;;;;;0.68;0.68;;;;;;;;;;5095445;28;20012;-44
2021/10/06 04:51:27;;;;;;;0.98;0.60;;;;;;;;;;5094978;28;20082;-44
2021/10/06 04:53:52;;;;;;;1.83;0.63;;;;;;;;;;5095239;28;20027;-44
2021/10/06 04:56:17;;;;;;;2.35;0.47;;;;;;;;;;5094922;28;20028;-44
2021/10/06 04:58:43;;;;;;;3.22;0.95;;;;;;;;;;5095217;28;20378;-44
2021/10/06 05:01:08;;;;;;;4.38;1.08;;;;;;;;;;5095217;28;20498;-44
2021/10/06 05:03:34;;;;;;;0.70;0.52;;;;;;;;;;5095092;28;20024;-44
2021/10/06 05:05:59;;;;;;;3.88;0.88;;;;;;;;;;5076612;28;20020;-44
2021/10/06 05:08:25;;;;;;;4.85;0.80;;;;;;;;;;5094654;28;20431;-44
2021/10/06 05:10:50;;;;;;;0.98;0.55;;;;;;;;;;5094751;28;20039;-44
2021/10/06 05:13:16;;;;;;;2.70;0.75;;;;;;;;;;5076569;28;20055;-43
2021/10/06 05:15:41;;;;;;;3.45;0.90;;;;;;;;;;5094575;28;20489;-43
2021/10/06 05:18:06;;;;;;;3.17;0.50;;;;;;;;;;5094577;28;20101;-44
2021/10/06 05:20:32;;;;;;;10.18;1.20;;;;;;;;;;5094723;28;20054;-44
2021/10/06 05:22:58;;;;;;;4.10;0.93;;;;;;;;;;5094465;28;20375;-44
2021/10/06 05:25:23;;;;;;;6.80;0.63;;;;;;;;;;5094260;28;20020;-44
2021/10/06 05:27:49;;;;;;;1.83;1.10;;;;;;;;;;5094401;28;20028;-44
2021/10/06 05:30:15;;;;;;;5.05;1.05;;;;;;;;;;5094548;28;20107;-44
2021/10/06 05:32:40;;;;;;;1.02;0.40;;;;;;;;;;5094636;28;20383;-44
2021/10/06 05:35:06;;;;;;;2.35;0.60;;;;;;;;;;5094207;28;20091;-44
2021/10/06 05:37:31;;;;;;;1.38;0.47;;;;;;;;;;5094184;28;20020;-44
2021/10/06 05:39:57;;;;;;;2.30;0.40;;;;;;;;;;5094258;28;20026;-44
2021/10/06 05:42:22;;;;;;;6.28;0.70;;;;;;;;;;5093942;28;20466;-44
2021/10/06 05:44:48;;;;;;;1.95;0.60;;;;;;;;;;5093650;28;20032;-44
2021/10/06 05:47:13;;;;;;;2.22;0.73;;;;;;;;;;5094003;28;20567;-44
2021/10/06 05:49:39;;;;;;;1.77;0.95;;;;;;;;;;5093914;28;20028;-44
2021/10/06 05:52:04;;;;;;;2.92;0.73;;;;;;;;;;5093902;28;20016;-44
2021/10/06 05:54:30;;;;;;;0.95;0.50;;;;;;;;;;5094077;28;20097;-44
2021/10/06 05:56:55;;;;;;;3.40;0.80;;;;;;;;;;5093793;28;20012;-43
2021/10/06 05:59:21;;;;;;;2.28;0.70;;;;;;;;;;5094078;28;20118;-44
2021/10/06 06:01:46;;;;;;;1.02;0.73;;;;;;;;;;5093899;28;20073;-44
2021/10/06 06:04:13;;;;;;;4.43;0.70;;;;;;;;;;5093604;28;20478;-44
2021/10/06 06:06:42;;;;;;;3.33;0.65;;;;;;;;;;5093693;28;20024;-44
2021/10/06 06:09:08;;;;;;;1.40;0.63;;;;;;;;;;5092453;28;20035;-44
2021/10/06 06:11:33;;;;;;;2.05;0.70;;;;;;;;;;5092256;28;20027;-43
2021/10/06 06:13:59;;;;;;;2.35;0.77;;;;;;;;;;5093280;28;20414;-43
2021/10/06 06:16:24;;;;;;;0.75;0.52;;;;;;;;;;5093412;28;20030;-44
2021/10/06 06:18:50;;;;;;;4.03;1.17;;;;;;;;;;5075649;28;20060;-43
2021/10/06 06:21:15;;;;;;;18.58;0.93;;;;;;;;;;5093313;28;20012;-43
2021/10/06 06:23:41;;;;;;;0.63;0.50;;;;;;;;;;5093335;28;20057;-43
2021/10/06 06:26:08;;;;;;;0.75;0.40;;;;;;;;;;5093167;28;20012;-44
2021/10/06 06:28:34;;;;;;;1.65;0.80;;;;;;;;;;5093490;28;20066;-43
2021/10/06 06:31:00;;;;;;;4.18;0.70;;;;;;;;;;5093468;28;20256;-43
2021/10/06 06:33:25;;;;;;;2.22;0.50;;;;;;;;;;5093029;28;20052;-44
2021/10/06 06:35:51;;;;;;;4.80;1.05;;;;;;;;;;5093330;28;20008;-44
2021/10/06 06:38:16;;;;;;;3.55;0.75;;;;;;;;;;5093032;28;20043;-44
2021/10/06 06:40:42;;;;;;;1.58;0.68;;;;;;;;;;5093281;28;20016;-44
2021/10/06 06:43:08;;;;;;;2.33;1.05;;;;;;;;;;5092963;28;20043;-44
2021/10/06 06:45:35;;;;;;;3.80;0.75;;;;;;;;;;5092794;28;20027;-44
2021/10/06 06:48:01;;;;;;;1.27;0.80;;;;;;;;;;5093114;28;20027;-43
2021/10/06 06:50:26;;;;;;;1.67;0.70;;;;;;;;;;5092999;28;20012;-43
2021/10/06 06:52:52;;;;;;;3.58;0.70;;;;;;;;;;5093016;28;20856;-43
2021/10/06 06:55:18;;;;;;;2.70;0.80;;;;;;;;;;5092830;28;20466;-44
2021/10/06 06:57:43;;;;;;;8.52;0.60;;;;;;;;;;5091785;28;20490;-44
2021/10/06 07:00:09;;;;;;;1.08;0.50;;;;;;;;;;5074572;28;20107;-43
2021/10/06 07:02:34;;;;;;;1.27;0.47;;;;;;;;;;5092406;28;20032;-44
2021/10/06 07:05:00;;;;;;;2.00;1.50;;;;;;;;;;5092733;28;20024;-43
2021/10/06 07:07:27;;;;;;;6.18;0.63;;;;;;;;;;5092678;28;20565;-44
2021/10/06 07:09:52;;;;;;;0.55;0.47;;;;;;;;;;5092449;28;20035;-43
2021/10/06 07:12:19;;;;;;;4.95;1.52;;;;;;;;;;5092271;28;20040;-44
2021/10/06 07:14:44;;;;;;;1.25;0.40;;;;;;;;;;5092559;28;20043;-44
2021/10/06 07:17:10;;;;;;;5.25;1.75;;;;;;;;;;5092328;28;20058;-44
2021/10/06 07:19:36;;;;;;;4.93;0.50;;;;;;;;;;5092297;28;20020;-44
2021/10/06 07:22:02;;;;;;;1.92;0.50;;;;;;;;;;5074051;28;20066;-43
2021/10/06 07:24:27;;;;;;;9.40;0.82;;;;;;;;;;5092422;28;20023;-44
2021/10/06 07:26:53;;;;;;;0.80;0.50;;;;;;;;;;5092378;28;20032;-44
2021/10/06 07:29:18;;;;;;;0.93;0.45;;;;;;;;;;5091921;28;20023;-43
2021/10/06 07:31:44;;;;;;;0.68;0.60;;;;;;;;;;5092318;28;20028;-44
2021/10/06 07:34:09;;;;;;;2.70;0.73;;;;;;;;;;5092255;28;20382;-43
2021/10/06 07:36:35;;;;;;;3.75;0.50;;;;;;;;;;5091820;28;20521;-44
2021/10/06 07:39:00;;;;;;;1.50;0.47;;;;;;;;;;5092251;28;20032;-43
2021/10/06 07:41:26;;;;;;;1.88;0.70;;;;;;;;;;5091900;28;20458;-44
2021/10/06 07:43:52;;;;;;;3.38;0.70;;;;;;;;;;5092153;28;20112;-44
2021/10/06 07:46:18;;;;;;;12.10;1.42;;;;;;;;;;5091622;28;20114;-43
2021/10/06 07:48:44;;;;;;;2.45;0.70;;;;;;;;;;5091882;28;20008;-44
2021/10/06 07:51:09;;;;;;;1.83;0.70;;;;;;;;;;5091770;28;20039;-44
2021/10/06 07:53:35;;;;;;;2.08;0.50;;;;;;;;;;5091542;28;20024;-44
2021/10/06 07:56:00;;;;;;;1.73;0.57;;;;;;;;;;5091776;28;20031;-43
2021/10/06 07:58:27;;;;;;;5.40;0.70;;;;;;;;;;5091513;28;20059;-44
2021/10/06 08:00:52;;;;;;;3.20;0.70;;;;;;;;;;5091664;28;20059;-43
2021/10/06 08:03:17;;;;;;;1.30;1.00;;;;;;;;;;5091635;28;20023;-44
2021/10/06 08:05:44;;;;;;;2.10;0.50;;;;;;;;;;5073386;28;20435;-44
2021/10/06 08:08:10;;;;;;;1.30;0.38;;;;;;;;;;5073374;28;20016;-43
2021/10/06 08:10:35;;;;;;;1.50;0.47;;;;;;;;;;5091539;28;20077;-45
2021/10/06 08:13:03;;;;;;;7.05;0.63;;;;;;;;;;5073076;28;20052;-44
2021/10/06 08:15:29;;;;;;;2.83;1.02;;;;;;;;;;5091473;28;20378;-44
2021/10/06 08:17:55;;;;;;;1.83;0.73;;;;;;;;;;5090184;28;20105;-44
2021/10/06 08:20:21;;;;;;;4.38;1.17;;;;;;;;;;5091298;28;20039;-44
2021/10/06 08:22:47;;;;;;;0.75;0.73;;;;;;;;;;5091545;28;20016;-43
2021/10/06 08:25:12;;;;;;;2.83;1.02;;;;;;;;;;5091311;28;20024;-43
2021/10/06 08:27:38;;;;;;;3.45;1.08;;;;;;;;;;5091542;28;20024;-44
2021/10/06 08:30:04;;;;;;;5.82;0.82;;;;;;;;;;5091606;28;20514;-44
2021/10/06 08:32:29;;;;;;;2.22;0.90;;;;;;;;;;5091268;28;20020;-44
2021/10/06 08:34:55;;;;;;;2.40;0.65;;;;;;;;;;5091286;28;20032;-43
2021/10/06 08:37:20;;;;;;;1.00;0.40;;;;;;;;;;5091238;28;20544;-44
2021/10/06 08:39:46;;;;;;;1.95;0.88;;;;;;;;;;5091498;28;20038;-43
2021/10/06 08:42:12;;;;;;;0.30;0.30;;;;;;;;;;5091235;28;20020;-44
2021/10/06 08:44:38;;;;;;;5.47;0.98;;;;;;;;;;5091170;28;20102;-43
2021/10/06 08:47:05;;;;;;;1.48;0.80;;;;;;;;;;5091427;28;20024;-44
2021/10/06 08:49:31;;;;;;;2.58;0.80;;;;;;;;;;5091100;28;20063;-44
2021/10/06 08:51:57;;;;;;;2.78;0.70;;;;;;;;;;5091441;28;20047;-44
2021/10/06 08:54:23;;;;;;;5.07;0.88;;;;;;;;;;5090887;28;20494;-44
2021/10/06 08:56:49;;;;;;;0.73;0.50;;;;;;;;;;5091070;28;20016;-44
2021/10/06 08:59:14;;;;;;;1.02;0.50;;;;;;;;;;5091367;28;20033;-43
2021/10/06 09:01:44;;;;;;;3.35;0.73;;;;;;;;;;5090968;28;20453;-44
2021/10/06 09:04:09;;;;;;;1.10;0.50;;;;;;;;;;5091113;28;20032;-44
2021/10/06 09:06:36;;;;;;;0.68;0.40;;;;;;;;;;5090934;28;20034;-45
2021/10/06 09:09:10;;;;;;;1.30;0.35;;;;;;;;;;5091256;28;20024;-44
2021/10/06 09:11:35;;;;;;;0.25;0.25;;;;;;;;;;5090948;28;20624;-44
2021/10/06 09:14:05;;;;;;;2.88;0.63;;;;;;;;;;5090781;28;20052;-44
2021/10/06 09:16:30;;;;;;;2.95;0.65;;;;;;;;;;5090803;28;20032;-44
2021/10/06 09:18:56;;;;;;;4.75;0.52;;;;;;;;;;5090920;28;20027;-44
2021/10/06 09:21:21;;;;;;;1.45;0.60;;;;;;;;;;5075401;28;20632;-44
2021/10/06 09:23:46;;;;;;;2.65;0.32;;;;;;;;;;5094473;28;20024;-44
2021/10/06 09:26:13;;;;;;;4.43;0.55;;;;;;;;;;5094449;28;20032;-44
2021/10/06 09:28:43;;;;;;;0.55;0.30;;;;;;;;;;5094674;28;20429;-43
2021/10/06 09:31:13;;;;;;;4.15;0.50;;;;;;;;;;5094267;28;20032;-43
2021/10/06 09:33:38;;;;;;;2.83;0.63;;;;;;;;;;5094348;28;20079;-45
2021/10/06 09:36:12;;;;;;;2.47;0.50;;;;;;;;;;5094324;28;20061;-44
2021/10/06 09:38:51;;;;;;;0.30;0.30;;;;;;;;;;5094402;28;20035;-44
2021/10/06 09:41:43;;;;;;;0.50;0.20;;;;;;;;;;5094434;28;20030;-44
2021/10/06 09:44:21;;;;;;;0.50;0.20;;;;;;;;;;5090400;28;20040;-43
2021/10/06 09:46:52;;;;;;;3.83;0.38;;;;;;;;;;5094116;28;20036;-44
2021/10/06 09:49:19;;;;;;;2.03;0.38;;;;;;;;;;5094233;28;20059;-44
2021/10/06 09:51:45;;;;;;;2.25;0.55;;;;;;;;;;5094246;28;20649;-44
2021/10/06 09:54:10;;;;;;;4.30;0.77;;;;;;;;;;5093936;28;20044;-44
2021/10/06 09:56:42;;;;;;;1.00;0.40;;;;;;;;;;5093730;28;20052;-44
2021/10/06 09:59:10;;;;;;;1.80;0.40;;;;;;;;;;5094157;28;20096;-43
2021/10/06 10:01:39;;;;;;;3.00;0.57;;;;;;;;;;5093770;28;20481;-44
2021/10/06 10:04:09;;;;;;;4.15;0.40;;;;;;;;;;5093762;28;20035;-43
2021/10/06 10:06:35;;;;;;;4.68;0.70;;;;;;;;;;5093565;28;20031;-44
2021/10/06 10:09:02;;;;;;;2.95;0.40;;;;;;;;;;5094028;28;20322;-44
2021/10/06 10:11:28;;;;;;;1.88;0.60;;;;;;;;;;5093594;28;20016;-44
2021/10/06 10:13:54;;;;;;;5.75;0.40;;;;;;;;;;5093228;28;20074;-44
2021/10/06 10:16:21;;;;;;;1.13;0.43;;;;;;;;;;5093366;28;20085;-43
2021/10/06 10:18:47;;;;;;;0.45;0.45;;;;;;;;;;5093611;28;20077;-44
2021/10/06 10:21:14;;;;;;;1.23;0.25;;;;;;;;;;5093385;28;20099;-43
2021/10/06 10:23:40;;;;;;;1.85;0.52;;;;;;;;;;5093316;28;20471;-45
2021/10/06 10:26:05;;;;;;;1.73;0.50;;;;;;;;;;5093214;28;20031;-43
2021/10/06 10:28:37;;;;;;;0.77;0.25;;;;;;;;;;5075146;28;20122;-43
2021/10/06 10:31:03;;;;;;;1.25;0.43;;;;;;;;;;5093589;28;20059;-44
2021/10/06 10:33:39;;;;;;;4.28;0.30;;;;;;;;;;5093060;28;20483;-44
2021/10/06 10:36:25;;;;;;;3.35;0.50;;;;;;;;;;5093157;28;20024;-44
2021/10/06 10:38:50;;;;;;;3.20;0.47;;;;;;;;;;5093090;28;20047;-45
2021/10/06 10:41:36;;;;;;;0.93;0.25;;;;;;;;;;5093233;28;20020;-45
2021/10/06 10:44:02;;;;;;;0.25;0.25;;;;;;;;;;5092998;28;20035;-44
2021/10/06 10:46:47;;;;;;;0.55;0.50;;;;;;;;;;5092805;28;20016;-44
2021/10/06 10:49:16;;;;;;;1.55;0.10;;;;;;;;;;5092861;28;20099;-44
2021/10/06 10:51:42;;;;;;;0.52;0.52;;;;;;;;;;5093161;28;20031;-44
2021/10/06 10:54:10;;;;;;;0.57;0.40;;;;;;;;;;5074698;28;20036;-46
2021/10/06 10:56:39;;;;;;;1.75;0.35;;;;;;;;;;5092773;28;20024;-44
2021/10/06 10:59:05;;;;;;;0.40;0.17;;;;;;;;;;5093034;28;20056;-44
2021/10/06 11:01:38;;;;;;;0.40;0.25;;;;;;;;;;5092612;28;20016;-43
2021/10/06 11:04:08;;;;;;;1.35;0.28;;;;;;;;;;5092908;28;20078;-43
2021/10/06 11:06:35;;;;;;;0.28;0.20;;;;;;;;;;5092769;28;20028;-44
2021/10/06 11:09:00;;;;;;;1.25;0.38;;;;;;;;;;5092444;28;20028;-43
2021/10/06 11:11:27;;;;;;;2.05;0.40;;;;;;;;;;5092432;28;20058;-43
2021/10/06 11:13:53;;;;;;;0.63;0.30;;;;;;;;;;5092737;28;20058;-44
2021/10/06 11:16:20;;;;;;;0.40;0.20;;;;;;;;;;5092156;28;20028;-44
2021/10/06 11:18:50;;;;;;;0.98;0.30;;;;;;;;;;5092309;28;20471;-44
2021/10/06 11:21:39;;;;;;;0.50;0.15;;;;;;;;;;5092339;28;20044;-44
2021/10/06 11:24:21;;;;;;;0.75;0.20;;;;;;;;;;5092215;28;20024;-44
2021/10/06 11:26:47;;;;;;;0.52;0.32;;;;;;;;;;5092287;28;20049;-43
2021/10/06 11:29:12;;;;;;;0.20;0.20;;;;;;;;;;5092232;28;20099;-43
2021/10/06 11:31:39;;;;;;;1.35;0.40;;;;;;;;;;5092007;28;20028;-44
2021/10/06 11:34:06;;;;;;;0.10;0.10;;;;;;;;;;5092255;28;20028;-43
2021/10/06 11:36:34;;;;;;;1.10;0.32;;;;;;;;;;5092195;28;20042;-44
2021/10/06 11:39:02;;;;;;;1.00;0.28;;;;;;;;;;5091966;28;20020;-44
2021/10/06 11:41:28;;;;;;;2.30;0.35;;;;;;;;;;5091958;28;20540;-44
2021/10/06 11:43:55;;;;;;;2.65;0.32;;;;;;;;;;5091566;28;20020;-44
2021/10/06 11:46:23;;;;;;;1.25;0.20;;;;;;;;;;5091644;28;20089;-44
2021/10/06 11:48:53;;;;;;;0.47;0.22;;;;;;;;;;5091950;28;20050;-44
2021/10/06 11:51:19;;;;;;;0.57;0.30;;;;;;;;;;5092083;28;20047;-44
2021/10/06 11:53:48;;;;;;;0.55;0.20;;;;;;;;;;5091881;28;20036;-44
2021/10/06 11:56:24;;;;;;;1.45;0.20;;;;;;;;;;5091666;28;20471;-44
2021/10/06 11:58:50;;;;;;;1.45;0.40;;;;;;;;;;5091739;28;20032;-43
2021/10/06 12:01:15;;;;;;;0.60;0.30;;;;;;;;;;5091634;28;20093;-43
2021/10/06 12:03:41;;;;;;;0.10;0.10;;;;;;;;;;5091614;28;20060;-44
2021/10/06 12:06:07;;;;;;;0.10;0.10;;;;;;;;;;5091530;28;20016;-44
2021/10/06 12:08:33;;;;;;;0.10;0.10;;;;;;;;;;5091564;28;20036;-44
2021/10/06 12:10:59;;;;;;;0.20;0.17;;;;;;;;;;5091578;28;20023;-43
2021/10/06 12:13:35;;;;;;;0.10;0.10;;;;;;;;;;5091239;28;20193;-44
2021/10/06 12:16:00;;;;;;;4.75;0.35;;;;;;;;;;5091986;28;20147;-43
2021/10/06 12:18:26;;;;;;;0.52;0.22;;;;;;;;;;5091690;28;20506;-44
2021/10/06 12:20:51;;;;;;;0.40;0.22;;;;;;;;;;5091528;28;20378;-43
2021/10/06 12:23:25;;;;;;;0.52;0.22;;;;;;;;;;5091290;28;20024;-44
2021/10/06 12:25:52;;;;;;;0.20;0.20;;;;;;;;;;5091385;28;20025;-44
2021/10/06 12:28:19;;;;;;;5.63;0.35;;;;;;;;;;5091402;28;20475;-44
2021/10/06 12:30:51;;;;;;;0.10;0.10;;;;;;;;;;5091430;28;20024;-44
2021/10/06 12:33:16;;;;;;;0.10;0.10;;;;;;;;;;5091323;28;20036;-44
2021/10/06 12:35:46;;;;;;;0.55;0.20;;;;;;;;;;5073675;28;20019;-44
2021/10/06 12:38:15;;;;;;;0.32;0.20;;;;;;;;;;5091620;28;20390;-44
2021/10/06 12:40:46;;;;;;;1.33;0.20;;;;;;;;;;5073182;28;20049;-45
2021/10/06 12:43:11;;;;;;;0.25;0.20;;;;;;;;;;5091524;28;20032;-46
2021/10/06 12:45:56;;;;;;;2.63;0.15;;;;;;;;;;5091392;28;20478;-44
2021/10/06 12:48:55;;;;;;;0.13;0.13;;;;;;;;;;5091143;28;20089;-44
2021/10/06 12:51:20;;;;;;;0.30;0.30;;;;;;;;;;5075568;28;20467;-44
2021/10/06 12:53:55;;;;;;;0.40;0.20;;;;;;;;;;5091148;28;20073;-44
2021/10/06 12:56:31;;;;;;;0.52;0.13;;;;;;;;;;5093809;28;20434;-44
2021/10/06 12:59:07;;;;;;;0.40;0.25;;;;;;;;;;5095101;28;20105;-44
2021/10/06 13:01:33;;;;;;;2.10;0.50;;;;;;;;;;5076731;28;20111;-44
2021/10/06 13:03:59;;;;;;;0.30;0.30;;;;;;;;;;5094914;28;20668;-44
2021/10/06 13:06:24;;;;;;;0.15;0.10;;;;;;;;;;5094718;28;20028;-44
2021/10/06 13:08:51;;;;;;;0.43;0.20;;;;;;;;;;5076196;28;20095;-43
2021/10/06 13:11:17;;;;;;;1.75;0.20;;;;;;;;;;5094770;28;20043;-44
2021/10/06 13:13:43;;;;;;;0.20;0.20;;;;;;;;;;5094426;28;20052;-44
2021/10/06 13:16:08;;;;;;;1.70;0.40;;;;;;;;;;5094917;28;20123;-44
2021/10/06 13:18:34;;;;;;;0.25;0.25;;;;;;;;;;5094916;28;20016;-44
2021/10/06 13:20:59;;;;;;;0.63;0.63;;;;;;;;;;5094592;28;20040;-44
2021/10/06 13:23:25;;;;;;;1.05;0.38;;;;;;;;;;5094397;28;20027;-43
2021/10/06 13:25:50;;;;;;;1.55;0.35;;;;;;;;;;5076403;28;20031;-43
2021/10/06 13:28:16;;;;;;;0.25;0.20;;;;;;;;;;5094448;28;20386;-43
2021/10/06 13:30:41;;;;;;;0.10;0.10;;;;;;;;;;5094367;28;20112;-44
2021/10/06 13:33:08;;;;;;;0.88;0.30;;;;;;;;;;5076290;28;20023;-44
2021/10/06 13:35:34;;;;;;;0.32;0.13;;;;;;;;;;5094220;28;20035;-43
2021/10/06 13:38:00;;;;;;;0.43;0.28;;;;;;;;;;5094328;28;20024;-43
2021/10/06 13:40:25;;;;;;;0.20;0.20;;;;;;;;;;5094197;28;20055;-44
2021/10/06 13:42:51;;;;;;;0.20;0.20;;;;;;;;;;5094251;28;20104;-43
2021/10/06 13:45:18;;;;;;;0.20;0.20;;;;;;;;;;5075944;28;20035;-44
2021/10/06 13:47:43;;;;;;;2.97;0.50;;;;;;;;;;5094051;28;20535;-44
2021/10/06 13:50:09;;;;;;;0.47;0.22;;;;;;;;;;5094109;28;20063;-44
2021/10/06 13:52:35;;;;;;;2.30;0.10;;;;;;;;;;5093792;28;20111;-44
2021/10/06 13:55:00;;;;;;;0.20;0.20;;;;;;;;;;5093976;28;20047;-44
2021/10/06 13:57:26;;;;;;;0.52;0.22;;;;;;;;;;5093838;28;20012;-43
2021/10/06 13:59:53;;;;;;;0.90;0.20;;;;;;;;;;5093880;28;20036;-44
2021/10/06 14:02:18;;;;;;;0.55;0.20;;;;;;;;;;5093897;28;20038;-43
2021/10/06 14:04:43;;;;;;;0.00;0.00;;;;;;;;;;5093655;28;20035;-47
2021/10/06 14:07:09;;;;;;;1.20;0.20;;;;;;;;;;5093345;28;20020;-43
2021/10/06 14:09:34;;;;;;;0.60;0.22;;;;;;;;;;5093716;28;20066;-43
2021/10/06 14:12:00;;;;;;;1.17;0.20;;;;;;;;;;5093510;28;20016;-43
2021/10/06 14:14:25;;;;;;;0.13;0.10;;;;;;;;;;5093420;28;20042;-43
2021/10/06 14:16:51;;;;;;;0.10;0.10;;;;;;;;;;5093534;28;20436;-44
2021/10/06 14:19:16;;;;;;;0.32;0.10;;;;;;;;;;5093868;28;20479;-43
2021/10/06 14:21:42;;;;;;;0.38;0.10;;;;;;;;;;5093323;28;20024;-43
2021/10/06 14:24:07;;;;;;;0.70;0.22;;;;;;;;;;5093931;28;20076;-44
2021/10/06 14:26:33;;;;;;;2.72;0.13;;;;;;;;;;5075143;28;20008;-44
2021/10/06 14:28:59;;;;;;;0.10;0.10;;;;;;;;;;5093265;28;20542;-44
2021/10/06 14:31:28;;;;;;;0.10;0.10;;;;;;;;;;5093236;28;20023;-44
2021/10/06 14:33:55;;;;;;;0.20;0.10;;;;;;;;;;5093423;28;20048;-44
2021/10/06 14:36:21;;;;;;;0.10;0.10;;;;;;;;;;5093140;28;20024;-44
2021/10/06 14:38:47;;;;;;;0.10;0.10;;;;;;;;;;5093150;28;20119;-44